Terminal Aerodrome Forecast
Issued by NWS

Home | Current Version | Previous Version | Text Only | Print | Product List | Glossary On
Versions: 1 2 3 4 5 6 7 8 9 10 11 12 13 14 15 16
000
FTUS43 KMQT 021816 AAA
TAFIWD
TAF AMD
KIWD 021816Z 0218/0318 12006KT 5SM -SHRA BR OVC040
     FM022100 11006KT P6SM OVC060
     FM030000 09003KT P6SM SCT060
     FM030700 00000KT P6SM FEW050
     FM030800 00000KT 1SM BR FEW045
     FM031100 00000KT 3SM BR FEW050
     FM031300 11003KT P6SM FEW080
      AMD LTD TO CLD VIS AND WIND=

USA.gov is the U.S. government's official web portal to all federal, state and local government web resources and services.